Time;durP1;ratioP1;P1;durP2;ratioP2;P2;SDS_P1;SDS_P2;PMS_P1;PMS_P2;Temp;Humidity;BMP_temperature;BMP_pressure;BME280_temperature;BME280_humidity;BME280_pressure;Samples;Min_cycle;Max_cycle;Signal;HPM_P1;HPM_P2
2024/01/01 00:00:59;;;;;;;39.33;33.03;;;;;;;4.27;100.00;96154.50;5083928;28;20213;-57
2024/01/01 00:03:26;;;;;;;40.53;34.67;;;;;;;4.19;100.00;96149.00;5083642;28;20308;-56
2024/01/01 00:05:52;;;;;;;31.97;28.47;;;;;;;4.16;100.00;96143.16;5084825;28;20205;-57
2024/01/01 00:08:20;;;;;;;31.97;26.70;;;;;;;4.13;100.00;96132.94;5083951;28;20211;-57
2024/01/01 00:10:47;;;;;;;36.40;27.50;;;;;;;4.03;100.00;96135.44;5083767;28;20285;-58
2024/01/01 00:13:15;;;;;;;32.40;27.80;;;;;;;3.95;100.00;96151.69;5083962;28;20289;-55
2024/01/01 00:15:42;;;;;;;31.27;25.00;;;;;;;3.84;100.00;96156.03;5085086;28;20203;-56
2024/01/01 00:18:09;;;;;;;32.43;25.17;;;;;;;3.74;100.00;96158.53;5084996;28;20209;-57
2024/01/01 00:20:36;;;;;;;24.77;20.30;;;;;;;3.76;100.00;96147.94;5084085;28;20230;-56
2024/01/01 00:23:03;;;;;;;24.43;20.77;;;;;;;3.70;100.00;96145.78;5083079;28;20252;-57
2024/01/01 00:25:35;;;;;;;24.57;21.00;;;;;;;3.59;100.00;96157.03;5082610;28;20218;-57
2024/01/01 00:28:02;;;;;;;21.07;17.03;;;;;;;3.57;100.00;96151.09;5082846;28;20198;-57
2024/01/01 00:30:32;;;;;;;20.97;18.67;;;;;;;3.53;100.00;96165.31;5082892;28;20212;-57
2024/01/01 00:33:00;;;;;;;21.13;17.73;;;;;;;3.48;100.00;96160.41;5083283;28;20598;-56
2024/01/01 00:35:27;;;;;;;19.23;17.00;;;;;;;3.51;100.00;96156.75;5083058;28;20595;-57
2024/01/01 00:37:54;;;;;;;20.40;17.33;;;;;;;3.51;100.00;96156.75;5083277;28;20205;-55
2024/01/01 00:40:21;;;;;;;21.20;16.87;;;;;;;3.47;100.00;96152.72;5083080;28;20299;-57
2024/01/01 00:42:48;;;;;;;18.67;16.70;;;;;;;3.45;100.00;96154.59;5083513;28;20222;-57
2024/01/01 00:45:16;;;;;;;16.23;14.00;;;;;;;3.47;100.00;96155.31;5082379;28;20213;-57
2024/01/01 00:47:44;;;;;;;17.17;15.23;;;;;;;3.51;100.00;96146.28;5082269;28;20202;-58
2024/01/01 00:50:13;;;;;;;17.53;14.63;;;;;;;3.57;100.00;96145.84;5081140;28;20209;-57
2024/01/01 00:52:40;;;;;;;16.57;14.13;;;;;;;3.58;100.00;96137.06;5082228;28;20202;-56
2024/01/01 00:55:07;;;;;;;17.13;14.63;;;;;;;3.60;100.00;96140.41;5082625;28;20198;-56
2024/01/01 00:57:34;;;;;;;12.60;10.37;;;;;;;3.65;100.00;96151.34;5082475;28;20220;-58
2024/01/01 01:00:02;;;;;;;12.03;10.63;;;;;;;3.58;100.00;96146.69;5082218;28;20588;-57
2024/01/01 01:02:29;;;;;;;13.10;11.10;;;;;;;3.57;100.00;96150.25;5082270;28;20271;-56
2024/01/01 01:04:59;;;;;;;10.97;8.90;;;;;;;3.52;100.00;96142.72;5082729;28;20301;-57
2024/01/01 01:07:26;;;;;;;9.10;8.20;;;;;;;3.53;100.00;96133.13;5082667;28;20281;-58
2024/01/01 01:09:53;;;;;;;8.87;7.97;;;;;;;3.57;100.00;96137.19;5082358;28;20337;-58
2024/01/01 01:12:19;;;;;;;7.40;6.70;;;;;;;3.57;100.00;96139.78;5092047;28;20198;-57
2024/01/01 01:14:46;;;;;;;7.13;5.93;;;;;;;3.59;100.00;96124.81;5096850;28;20218;-56
2024/01/01 01:17:12;;;;;;;7.63;6.13;;;;;;;3.66;100.00;96134.72;5092600;28;20289;-58
2024/01/01 01:19:39;;;;;;;6.10;5.57;;;;;;;3.59;100.00;96125.66;5088978;28;20229;-58
2024/01/01 01:22:07;;;;;;;7.57;6.30;;;;;;;3.60;100.00;96129.09;5091478;28;20302;-58
2024/01/01 01:24:34;;;;;;;6.83;5.60;;;;;;;3.53;100.00;96128.72;5093406;28;20220;-58
2024/01/01 01:27:02;;;;;;;7.00;5.80;;;;;;;3.51;100.00;96130.59;5086241;28;20202;-58
2024/01/01 01:29:29;;;;;;;5.73;5.10;;;;;;;3.51;100.00;96125.38;5087431;28;20208;-58
2024/01/01 01:31:56;;;;;;;5.40;4.90;;;;;;;3.51;100.00;96126.22;5083500;28;20216;-58
2024/01/01 01:34:24;;;;;;;5.97;5.40;;;;;;;3.46;100.00;96112.66;5082821;28;20278;-58
2024/01/01 01:36:51;;;;;;;6.37;5.10;;;;;;;3.49;100.00;96109.81;5083702;28;20275;-58
2024/01/01 01:39:19;;;;;;;4.83;4.43;;;;;;;3.49;100.00;96109.00;5082868;28;20202;-58
2024/01/01 01:41:47;;;;;;;5.33;4.60;;;;;;;3.51;100.00;96104.47;5087814;28;20200;-58
2024/01/01 01:44:14;;;;;;;4.83;4.27;;;;;;;3.52;100.00;96100.91;5087195;28;20781;-59
2024/01/01 01:46:41;;;;;;;4.17;3.87;;;;;;;3.56;100.00;96106.75;5089856;28;20297;-58
2024/01/01 01:49:08;;;;;;;6.83;4.20;;;;;;;3.57;100.00;96108.44;5088596;28;20209;-58
2024/01/01 01:51:34;;;;;;;5.40;4.90;;;;;;;3.66;100.00;96108.56;5086743;28;20285;-58
2024/01/01 01:54:01;;;;;;;5.00;4.50;;;;;;;3.62;100.00;96112.34;5082828;28;20202;-58
2024/01/01 01:56:29;;;;;;;6.27;5.00;;;;;;;3.61;100.00;96113.31;5081494;28;20639;-59
2024/01/01 01:58:56;;;;;;;5.03;4.53;;;;;;;3.63;100.00;96123.66;5081913;28;20209;-57
2024/01/01 02:01:23;;;;;;;5.53;4.63;;;;;;;3.69;100.00;96133.63;5081867;28;20229;-57
2024/01/01 02:03:50;;;;;;;7.47;6.13;;;;;;;3.72;100.00;96133.44;5081992;28;20229;-57
2024/01/01 02:06:17;;;;;;;7.27;5.60;;;;;;;3.75;100.00;96141.91;5082253;28;20205;-58
2024/01/01 02:08:43;;;;;;;5.30;4.67;;;;;;;3.80;100.00;96142.38;5082035;28;20220;-58
2024/01/01 02:11:10;;;;;;;5.13;4.63;;;;;;;3.81;100.00;96148.44;5082190;28;20255;-57
2024/01/01 02:13:38;;;;;;;4.80;4.40;;;;;;;3.88;100.00;96154.88;5081922;28;20264;-57
2024/01/01 02:16:07;;;;;;;4.60;4.13;;;;;;;4.01;100.00;96155.63;5082308;28;20286;-57
2024/01/01 02:18:34;;;;;;;4.53;3.93;;;;;;;4.07;100.00;96156.97;5081347;28;20288;-58
2024/01/01 02:21:00;;;;;;;4.33;3.83;;;;;;;4.14;100.00;96163.41;5088355;28;20230;-58
2024/01/01 02:23:29;;;;;;;4.63;3.93;;;;;;;4.21;100.00;96172.44;5096171;28;20224;-58
2024/01/01 02:25:56;;;;;;;4.27;3.87;;;;;;;4.30;100.00;96174.34;5096600;28;20211;-56
2024/01/01 02:28:23;;;;;;;4.07;3.63;;;;;;;4.37;100.00;96172.94;5094993;28;20230;-57
2024/01/01 02:30:49;;;;;;;4.30;3.93;;;;;;;4.42;100.00;96179.50;5087296;28;20212;-57
2024/01/01 02:33:18;;;;;;;4.57;4.03;;;;;;;4.50;100.00;96190.22;5085266;28;20205;-57
2024/01/01 02:35:44;;;;;;;4.80;4.30;;;;;;;4.57;100.00;96180.09;5085495;28;20272;-56
2024/01/01 02:38:11;;;;;;;4.70;4.30;;;;;;;4.65;100.00;96182.97;5085143;28;20201;-56
2024/01/01 02:40:41;;;;;;;5.90;4.60;;;;;;;4.70;100.00;96177.38;5085216;28;20206;-57
2024/01/01 02:43:07;;;;;;;5.23;4.73;;;;;;;4.75;100.00;96173.44;5085121;28;20321;-57
2024/01/01 02:45:34;;;;;;;4.73;4.33;;;;;;;4.79;100.00;96180.13;5084575;28;20300;-58
2024/01/01 02:48:01;;;;;;;4.67;4.27;;;;;;;4.82;100.00;96192.97;5084368;28;20217;-57
2024/01/01 02:50:29;;;;;;;4.93;4.43;;;;;;;4.87;100.00;96196.09;5084608;28;20677;-58
2024/01/01 02:52:56;;;;;;;5.07;4.57;;;;;;;4.84;100.00;96190.25;5084583;28;20299;-58
2024/01/01 02:55:23;;;;;;;5.17;4.67;;;;;;;4.87;100.00;96206.56;5084609;28;20859;-57
2024/01/01 02:57:51;;;;;;;5.00;4.60;;;;;;;4.89;100.00;96206.41;5085126;28;20295;-57
2024/01/01 03:00:18;;;;;;;4.60;4.20;;;;;;;4.88;100.00;96216.09;5084378;28;20285;-58
2024/01/01 03:02:46;;;;;;;4.63;4.00;;;;;;;4.94;100.00;96215.63;5083853;28;20241;-57
2024/01/01 03:05:12;;;;;;;4.83;3.60;;;;;;;5.01;100.00;96232.53;5084137;28;20691;-57
2024/01/01 03:07:39;;;;;;;5.10;3.40;;;;;;;5.01;100.00;96223.81;5085001;28;20198;-57
2024/01/01 03:10:06;;;;;;;4.27;3.10;;;;;;;5.05;100.00;96201.69;5086665;28;20614;-58
2024/01/01 03:12:33;;;;;;;4.67;2.93;;;;;;;5.01;100.00;96215.97;5084816;28;20288;-57
2024/01/01 03:15:03;;;;;;;3.07;2.77;;;;;;;4.98;100.00;96206.56;5084878;28;20222;-58
2024/01/01 03:17:30;;;;;;;3.07;2.77;;;;;;;4.99;100.00;96207.41;5084560;28;20207;-56
2024/01/01 03:19:57;;;;;;;2.73;2.53;;;;;;;5.13;100.00;96214.19;5089897;28;20693;-56
2024/01/01 03:22:23;;;;;;;3.93;2.70;;;;;;;5.06;100.00;96207.75;5094481;28;20202;-56
2024/01/01 03:24:50;;;;;;;4.70;2.90;;;;;;;5.11;100.00;96216.91;5093495;28;20297;-56
2024/01/01 03:27:17;;;;;;;3.20;2.87;;;;;;;4.98;100.00;96213.59;5084327;28;20281;-56
2024/01/01 03:29:44;;;;;;;4.83;3.43;;;;;;;5.11;100.00;96216.91;5083529;28;20195;-57
2024/01/01 03:32:13;;;;;;;2.70;2.50;;;;;;;5.09;100.00;96224.06;5082459;28;20263;-57
2024/01/01 03:34:39;;;;;;;4.40;3.07;;;;;;;4.99;100.00;96213.44;5083488;28;20212;-57
2024/01/01 03:37:06;;;;;;;3.53;2.90;;;;;;;4.99;100.00;96218.69;5084424;28;20297;-57
2024/01/01 03:39:32;;;;;;;3.50;2.60;;;;;;;4.96;100.00;96218.94;5082894;28;20217;-56
2024/01/01 03:41:59;;;;;;;2.70;2.50;;;;;;;4.94;100.00;96218.22;5083322;28;20298;-57
2024/01/01 03:44:26;;;;;;;3.20;3.00;;;;;;;4.95;100.00;96219.91;5082879;28;20257;-56
2024/01/01 03:46:53;;;;;;;6.40;3.17;;;;;;;4.97;100.00;96215.38;5083961;28;20220;-57
2024/01/01 03:49:22;;;;;;;3.30;3.00;;;;;;;4.92;100.00;96217.50;5083258;28;20201;-58
2024/01/01 03:51:49;;;;;;;3.47;3.17;;;;;;;4.88;100.00;96221.34;5083591;28;20245;-56
2024/01/01 03:54:16;;;;;;;3.43;3.03;;;;;;;4.86;100.00;96211.91;5083539;28;20193;-57
2024/01/01 03:56:42;;;;;;;3.13;2.93;;;;;;;4.82;100.00;96221.78;5082273;28;20913;-57
2024/01/01 03:59:09;;;;;;;3.03;2.60;;;;;;;4.88;100.00;96213.47;5083080;28;20631;-57
2024/01/01 04:01:35;;;;;;;4.37;2.97;;;;;;;4.90;100.00;96208.94;5083525;28;20355;-57
2024/01/01 04:04:04;;;;;;;3.53;2.90;;;;;;;4.99;100.00;96210.03;5081875;28;20214;-57
2024/01/01 04:06:33;;;;;;;2.93;2.73;;;;;;;4.93;100.00;96213.94;5083471;28;20212;-55
2024/01/01 04:09:01;;;;;;;3.17;2.57;;;;;;;4.93;100.00;96213.94;5084046;28;20517;-56
2024/01/01 04:11:29;;;;;;;3.33;3.00;;;;;;;4.86;100.00;96223.22;5083350;28;20206;-56
2024/01/01 04:13:56;;;;;;;2.57;2.33;;;;;;;4.97;100.00;96214.53;5082899;28;20214;-57
2024/01/01 04:16:23;;;;;;;2.60;2.40;;;;;;;5.03;100.00;96222.75;5082949;28;20216;-57
2024/01/01 04:18:53;;;;;;;3.17;2.10;;;;;;;5.01;100.00;96214.19;5083054;28;20630;-57
2024/01/01 04:21:19;;;;;;;3.13;2.83;;;;;;;5.00;100.00;96209.03;5083464;28;20199;-57
2024/01/01 04:23:48;;;;;;;2.97;2.77;;;;;;;5.03;100.00;96209.63;5082473;28;20305;-58
2024/01/01 04:26:14;;;;;;;2.13;2.00;;;;;;;5.00;100.00;96209.88;5083498;28;20226;-57
2024/01/01 04:28:42;;;;;;;2.50;2.33;;;;;;;5.06;100.00;96223.47;5083146;28;20289;-57
2024/01/01 04:31:08;;;;;;;5.13;2.93;;;;;;;5.09;100.00;96218.00;5082566;28;20194;-58
2024/01/01 04:33:35;;;;;;;4.23;2.37;;;;;;;5.14;100.00;96205.34;5082862;28;20286;-57
2024/01/01 04:36:04;;;;;;;2.30;2.17;;;;;;;5.06;100.00;96218.22;5082985;28;20294;-57
2024/01/01 04:38:33;;;;;;;2.07;1.87;;;;;;;5.10;100.00;96220.47;5083115;28;20198;-57
2024/01/01 04:41:01;;;;;;;1.90;1.80;;;;;;;5.06;100.00;96220.84;5082454;28;20619;-57
2024/01/01 04:43:28;;;;;;;3.90;2.27;;;;;;;5.03;100.00;96230.59;5081960;28;20679;-57
2024/01/01 04:45:54;;;;;;;2.40;2.20;;;;;;;5.00;100.00;96225.59;5083458;28;20206;-57
2024/01/01 04:48:23;;;;;;;6.90;5.50;;;;;;;4.89;100.00;96222.97;5082331;28;20212;-58
2024/01/01 04:50:50;;;;;;;4.33;2.23;;;;;;;4.94;100.00;96228.72;5082301;28;20213;-57
2024/01/01 04:53:16;;;;;;;2.70;2.00;;;;;;;4.99;100.00;96228.38;5083311;28;20628;-56
2024/01/01 04:55:43;;;;;;;2.53;2.07;;;;;;;5.03;100.00;96229.75;5082695;28;20216;-56
2024/01/01 04:58:11;;;;;;;3.13;1.77;;;;;;;4.93;100.00;96229.66;5082021;28;20202;-57
2024/01/01 05:00:38;;;;;;;2.10;1.90;;;;;;;4.98;100.00;96243.25;5081374;28;20201;-56
2024/01/01 05:03:05;;;;;;;2.50;2.20;;;;;;;4.90;100.00;96247.41;5081784;28;20321;-57
2024/01/01 05:05:32;;;;;;;2.53;2.30;;;;;;;4.85;100.00;96245.13;5082232;28;20213;-56
2024/01/01 05:07:58;;;;;;;2.93;1.90;;;;;;;4.87;100.00;96250.25;5082120;28;20293;-58
2024/01/01 05:10:25;;;;;;;2.13;1.97;;;;;;;4.83;100.00;96247.03;5082511;28;20198;-58
2024/01/01 05:12:54;;;;;;;2.67;2.03;;;;;;;4.85;100.00;96247.75;5082897;28;20194;-57
2024/01/01 05:15:23;;;;;;;3.87;2.03;;;;;;;4.73;100.00;96253.94;5081476;28;20218;-57
2024/01/01 05:17:49;;;;;;;2.73;2.00;;;;;;;4.83;100.00;96259.28;5083174;28;20198;-56
2024/01/01 05:20:17;;;;;;;2.43;1.87;;;;;;;4.77;100.00;96262.41;5081453;28;20226;-56
2024/01/01 05:22:45;;;;;;;2.33;2.13;;;;;;;4.79;100.00;96253.47;5081486;28;20217;-58
2024/01/01 05:25:12;;;;;;;2.90;1.90;;;;;;;4.82;100.00;96253.22;5081752;28;20816;-57
2024/01/01 05:27:39;;;;;;;3.40;1.77;;;;;;;4.83;100.00;96254.91;5090682;28;20253;-57
2024/01/01 05:30:07;;;;;;;2.07;1.87;;;;;;;4.88;100.00;96267.66;5097196;28;20242;-57
2024/01/01 05:32:37;;;;;;;2.50;1.90;;;;;;;4.82;100.00;96266.31;5101763;28;20178;-56
2024/01/01 05:35:06;;;;;;;1.90;1.80;;;;;;;4.86;100.00;96264.31;5084344;28;20598;-56
2024/01/01 05:37:34;;;;;;;2.90;2.63;;;;;;;4.84;100.00;96253.13;5081661;28;20213;-58
2024/01/01 05:40:01;;;;;;;3.13;2.47;;;;;;;4.84;100.00;96261.81;5082157;28;20212;-57
2024/01/01 05:42:28;;;;;;;3.80;2.73;;;;;;;4.87;100.00;96253.72;5081754;28;20202;-58
2024/01/01 05:44:54;;;;;;;4.20;2.93;;;;;;;4.84;100.00;96256.56;5082169;28;20229;-58
2024/01/01 05:47:21;;;;;;;3.27;2.63;;;;;;;4.87;100.00;96258.94;5081087;28;20194;-58
2024/01/01 05:49:49;;;;;;;3.17;2.53;;;;;;;4.83;100.00;96254.06;5081562;28;20296;-58
2024/01/01 05:52:17;;;;;;;3.43;3.10;;;;;;;4.87;100.00;96250.25;5081601;28;20203;-58
2024/01/01 05:54:45;;;;;;;6.30;3.57;;;;;;;4.91;100.00;96257.78;5081075;28;20234;-58
2024/01/01 05:57:11;;;;;;;3.20;2.90;;;;;;;4.87;100.00;96255.50;5082503;28;20260;-57
2024/01/01 05:59:39;;;;;;;3.07;2.73;;;;;;;4.84;100.00;96253.97;5085489;28;20215;-57
2024/01/01 06:02:08;;;;;;;4.03;3.00;;;;;;;4.88;100.00;96252.78;5085315;28;20257;-57
2024/01/01 06:04:35;;;;;;;2.77;2.50;;;;;;;4.93;100.00;96255.84;5086057;28;20217;-57
2024/01/01 06:07:03;;;;;;;3.83;2.90;;;;;;;4.88;100.00;96263.25;5086064;28;20208;-56
2024/01/01 06:09:31;;;;;;;5.03;2.60;;;;;;;4.94;100.00;96256.69;5085842;28;20202;-56
2024/01/01 06:11:58;;;;;;;2.90;2.60;;;;;;;4.93;100.00;96255.00;5085321;28;20552;-57
2024/01/01 06:14:24;;;;;;;2.33;2.23;;;;;;;4.92;100.00;96264.66;5085011;28;20526;-58
2024/01/01 06:16:52;;;;;;;3.40;3.10;;;;;;;4.90;100.00;96258.72;5085603;28;20208;-57
2024/01/01 06:19:19;;;;;;;4.73;3.07;;;;;;;4.99;100.00;96262.44;5085499;28;20307;-57
2024/01/01 06:21:45;;;;;;;2.97;2.63;;;;;;;4.99;100.00;96271.09;5086409;28;20630;-57
2024/01/01 06:24:14;;;;;;;3.13;2.30;;;;;;;5.03;100.00;96267.28;5085142;28;20230;-57
2024/01/01 06:26:40;;;;;;;2.80;2.50;;;;;;;5.03;100.00;96269.06;5085241;28;20647;-55
2024/01/01 06:29:07;;;;;;;2.53;2.17;;;;;;;5.05;100.00;96271.59;5085086;28;20213;-56
2024/01/01 06:31:34;;;;;;;2.50;2.30;;;;;;;5.07;100.00;96261.81;5086295;28;20537;-57
2024/01/01 06:34:01;;;;;;;2.50;2.30;;;;;;;5.08;100.00;96253.00;5085522;28;20212;-57
2024/01/01 06:36:28;;;;;;;3.57;2.53;;;;;;;5.10;100.00;96251.13;5084045;28;20635;-57
2024/01/01 06:38:55;;;;;;;3.57;2.10;;;;;;;5.18;100.00;96254.78;5084266;28;20209;-57
2024/01/01 06:41:23;;;;;;;2.70;2.50;;;;;;;5.18;100.00;96269.69;5085343;28;20293;-57
2024/01/01 06:43:49;;;;;;;2.67;2.47;;;;;;;5.14;100.00;96268.25;5084149;28;21503;-57
2024/01/01 06:46:16;;;;;;;3.63;2.37;;;;;;;5.15;100.00;96277.78;5085039;28;20293;-57
2024/01/01 06:48:42;;;;;;;2.23;2.03;;;;;;;5.17;100.00;96283.75;5084914;28;20211;-57
2024/01/01 06:51:14;;;;;;;3.60;2.20;;;;;;;5.14;100.00;96278.72;5086072;28;20212;-56
2024/01/01 06:53:40;;;;;;;3.00;2.17;;;;;;;5.10;100.00;96287.81;5086304;28;20844;-58
2024/01/01 06:56:07;;;;;;;3.77;2.10;;;;;;;5.21;100.00;96290.44;5085341;28;20202;-57
2024/01/01 06:58:35;;;;;;;2.27;1.80;;;;;;;5.20;100.00;96289.59;5084250;28;20206;-57
2024/01/01 07:01:04;;;;;;;3.50;2.03;;;;;;;5.20;100.00;96288.75;5085564;28;20211;-57
2024/01/01 07:03:31;;;;;;;2.10;1.90;;;;;;;5.19;100.00;96292.31;5084466;28;20638;-56
2024/01/01 07:05:58;;;;;;;2.13;1.70;;;;;;;5.14;100.00;96290.03;5084538;28;20233;-57
2024/01/01 07:08:24;;;;;;;2.90;2.30;;;;;;;5.13;100.00;96292.81;5083086;28;20292;-58
2024/01/01 07:10:52;;;;;;;3.40;2.03;;;;;;;5.07;100.00;96295.88;5085000;28;20194;-57
2024/01/01 07:13:21;;;;;;;2.00;1.87;;;;;;;4.99;100.00;96301.72;5083669;28;20651;-57
2024/01/01 07:15:49;;;;;;;2.40;1.73;;;;;;;5.08;100.00;96300.19;5085017;28;20194;-58
2024/01/01 07:18:16;;;;;;;2.73;1.63;;;;;;;5.05;100.00;96303.03;5085528;28;20203;-57
2024/01/01 07:20:45;;;;;;;2.47;2.20;;;;;;;5.09;100.00;96312.34;5084705;28;20293;-58
2024/01/01 07:23:11;;;;;;;1.80;1.70;;;;;;;5.07;100.00;96314.22;5084942;28;20731;-57
2024/01/01 07:25:40;;;;;;;2.50;1.80;;;;;;;5.11;100.00;96320.91;5096447;28;20312;-57
2024/01/01 07:28:08;;;;;;;3.50;1.93;;;;;;;5.15;100.00;96327.59;5101298;28;20206;-58
2024/01/01 07:30:36;;;;;;;2.30;1.80;;;;;;;5.09;100.00;96322.81;5099403;28;20202;-58
2024/01/01 07:33:07;;;;;;;2.80;2.00;;;;;;;5.16;100.00;96324.00;5097906;28;20522;-57
2024/01/01 07:35:33;;;;;;;2.70;2.17;;;;;;;5.19;100.00;96335.09;5089578;28;20190;-58
2024/01/01 07:38:00;;;;;;;1.67;1.57;;;;;;;5.15;100.00;96343.31;5095752;28;20221;-58
2024/01/01 07:40:29;;;;;;;3.47;1.60;;;;;;;5.25;100.00;96336.41;5098653;28;20210;-57
2024/01/01 07:42:56;;;;;;;3.90;2.00;;;;;;;5.25;100.00;96342.47;5091410;28;20201;-57
2024/01/01 07:45:23;;;;;;;2.33;2.20;;;;;;;5.26;100.00;96341.53;5084847;28;20253;-57
2024/01/01 07:47:49;;;;;;;2.97;2.20;;;;;;;5.31;100.00;96335.94;5084681;28;20198;-58
2024/01/01 07:50:20;;;;;;;2.80;2.00;;;;;;;5.32;100.00;96332.34;5082781;28;20600;-58
2024/01/01 07:52:47;;;;;;;2.60;2.23;;;;;;;5.30;100.00;96324.63;5084405;28;20195;-58
2024/01/01 07:55:16;;;;;;;5.50;2.93;;;;;;;5.31;100.00;96330.72;5083655;28;20274;-57
2024/01/01 07:57:46;;;;;;;2.43;1.57;;;;;;;5.40;100.00;96332.59;5084263;28;20213;-57
2024/01/01 08:00:13;;;;;;;2.50;2.00;;;;;;;5.51;100.00;96332.59;5083411;28;20194;-57
2024/01/01 08:02:41;;;;;;;3.00;1.60;;;;;;;5.57;100.00;96336.53;5082958;28;20230;-58
2024/01/01 08:05:08;;;;;;;2.67;1.57;;;;;;;5.63;100.00;96334.28;5083688;28;20230;-57
2024/01/01 08:07:36;;;;;;;2.07;1.60;;;;;;;5.64;100.00;96333.31;5084149;28;20258;-57
2024/01/01 08:10:03;;;;;;;2.03;1.43;;;;;;;5.71;100.00;96336.28;5083804;28;20195;-57
2024/01/01 08:12:29;;;;;;;1.97;1.77;;;;;;;5.78;100.00;96337.47;5083666;28;20630;-57
2024/01/01 08:14:56;;;;;;;4.87;1.77;;;;;;;5.81;100.00;96348.56;5083402;28;20197;-56
2024/01/01 08:17:23;;;;;;;1.97;1.73;;;;;;;5.84;100.00;96337.84;5081499;28;20237;-57
2024/01/01 08:19:49;;;;;;;2.47;1.50;;;;;;;5.90;100.00;96344.41;5083075;28;20245;-57
2024/01/01 08:22:16;;;;;;;4.17;1.50;;;;;;;5.97;100.00;96340.34;5082688;28;20206;-57
2024/01/01 08:24:44;;;;;;;2.60;1.40;;;;;;;5.98;100.00;96337.59;5083346;28;20232;-57
2024/01/01 08:27:10;;;;;;;1.73;1.30;;;;;;;6.09;100.00;96335.91;5083205;28;20209;-57
2024/01/01 08:29:37;;;;;;;2.40;1.30;;;;;;;6.12;100.00;96330.41;5082565;28;20975;-57
2024/01/01 08:32:04;;;;;;;2.20;1.37;;;;;;;6.14;100.00;96333.72;5083154;28;20629;-57
2024/01/01 08:34:33;;;;;;;3.23;1.60;;;;;;;6.27;100.00;96347.56;5082546;28;20530;-57
2024/01/01 08:36:59;;;;;;;1.27;1.17;;;;;;;6.20;100.00;96341.13;5084715;28;20198;-58
2024/01/01 08:39:26;;;;;;;1.97;1.10;;;;;;;6.19;100.00;96352.59;5098949;28;20275;-57
2024/01/01 08:41:54;;;;;;;2.67;1.30;;;;;;;6.24;100.00;96345.16;5099220;28;20204;-57
2024/01/01 08:44:21;;;;;;;1.73;0.93;;;;;;;6.28;100.00;96346.56;5101554;28;20222;-56
2024/01/01 08:46:50;;;;;;;2.60;1.10;;;;;;;6.23;100.00;96343.50;5107626;28;20237;-56
2024/01/01 08:49:17;;;;;;;1.33;0.90;;;;;;;6.24;100.00;96361.75;5105202;28;20236;-56
2024/01/01 08:51:45;;;;;;;2.43;0.90;;;;;;;6.35;100.00;96369.59;5103876;28;21029;-57
2024/01/01 08:54:14;;;;;;;2.40;0.80;;;;;;;6.37;100.00;96365.06;5097091;28;20294;-57
2024/01/01 08:56:45;;;;;;;1.63;1.20;;;;;;;6.41;100.00;96370.91;5094639;28;20208;-56
2024/01/01 08:59:15;;;;;;;2.23;0.73;;;;;;;6.38;100.00;96366.72;5093428;28;20182;-58
2024/01/01 09:01:45;;;;;;;1.73;1.10;;;;;;;6.53;100.00;96364.66;5094521;28;20241;-58
2024/01/01 09:04:11;;;;;;;2.50;1.20;;;;;;;6.44;100.00;96373.28;5092881;28;20197;-59
2024/01/01 09:06:38;;;;;;;1.17;0.93;;;;;;;6.55;100.00;96378.50;5093418;28;20265;-58
2024/01/01 09:09:05;;;;;;;2.17;1.10;;;;;;;6.54;100.00;96382.06;5091614;28;20289;-58
2024/01/01 09:11:31;;;;;;;3.37;1.23;;;;;;;6.62;100.00;96379.66;5090560;28;20206;-56
2024/01/01 09:13:58;;;;;;;1.13;1.10;;;;;;;6.69;100.00;96380.84;5092406;28;20266;-58
2024/01/01 09:16:29;;;;;;;3.07;1.10;;;;;;;6.70;100.00;96382.47;5088170;28;20258;-56
2024/01/01 09:18:56;;;;;;;1.77;0.80;;;;;;;6.74;100.00;96386.53;5082963;28;20202;-56
2024/01/01 09:21:24;;;;;;;1.73;0.67;;;;;;;6.78;100.00;96381.84;5082574;28;20210;-56
2024/01/01 09:23:50;;;;;;;1.97;0.80;;;;;;;6.83;100.00;96384.97;5082238;28;20221;-56
2024/01/01 09:26:17;;;;;;;0.70;0.57;;;;;;;6.77;100.00;96388.06;5083528;28;20240;-55
2024/01/01 09:28:46;;;;;;;1.47;0.73;;;;;;;6.86;100.00;96385.53;5082082;28;20201;-56
2024/01/01 09:31:12;;;;;;;2.00;1.13;;;;;;;6.89;100.00;96389.69;5081979;28;20214;-55
2024/01/01 09:33:40;;;;;;;2.33;1.50;;;;;;;6.93;100.00;96397.22;5082392;28;20206;-57
2024/01/01 09:36:07;;;;;;;2.53;1.10;;;;;;;7.03;100.00;96394.66;5081327;28;20720;-56
2024/01/01 09:38:35;;;;;;;1.67;1.27;;;;;;;7.14;100.00;96404.28;5081767;28;20528;-56
2024/01/01 09:41:02;;;;;;;2.30;0.90;;;;;;;7.19;100.00;96400.28;5081531;28;20205;-57
2024/01/01 09:43:28;;;;;;;2.00;0.90;;;;;;;7.24;100.00;96392.03;5083101;28;20598;-56
2024/01/01 09:45:56;;;;;;;1.90;0.87;;;;;;;7.33;100.00;96391.25;5088151;28;20232;-56
2024/01/01 09:48:23;;;;;;;4.77;1.10;;;;;;;7.38;100.00;96391.69;5106431;28;20181;-55
2024/01/01 09:50:52;;;;;;;1.40;0.90;;;;;;;7.39;100.00;96396.00;5101989;28;20264;-55
2024/01/01 09:53:19;;;;;;;2.10;0.90;;;;;;;7.40;100.00;96390.59;5097157;28;20208;-55
2024/01/01 09:55:51;;;;;;;3.47;1.13;;;;;;;7.47;100.00;96391.72;5087280;28;20221;-56
2024/01/01 09:58:18;;;;;;;4.73;1.53;;;;;;;7.50;100.00;96390.66;5083095;28;20344;-55
2024/01/01 10:00:45;;;;;;;1.93;1.30;;;;;;;7.56;100.00;96400.66;5082262;28;20553;-56
2024/01/01 10:03:13;;;;;;;1.40;0.80;;;;;;;7.64;99.86;96392.94;5082779;28;20237;-55
2024/01/01 10:05:40;;;;;;;1.13;1.10;;;;;;;7.68;100.00;96378.56;5082335;28;20320;-55
2024/01/01 10:08:13;;;;;;;1.03;0.93;;;;;;;7.71;97.69;96388.81;5082179;28;20202;-56
2024/01/01 10:10:40;;;;;;;2.13;1.00;;;;;;;7.82;100.00;96391.38;5084212;28;20213;-56
2024/01/01 10:13:15;;;;;;;1.80;1.30;;;;;;;8.08;95.95;96389.09;5083644;28;20210;-57
2024/01/01 10:15:45;;;;;;;1.80;0.87;;;;;;;8.31;97.87;96392.38;5081192;28;20201;-56
2024/01/01 10:18:13;;;;;;;2.33;1.10;;;;;;;8.53;97.40;96397.44;5082245;28;20191;-55
2024/01/01 10:20:42;;;;;;;3.47;1.17;;;;;;;8.69;93.31;96392.44;5081872;28;20287;-56
2024/01/01 10:23:29;;;;;;;5.27;1.60;;;;;;;8.84;98.48;96384.97;5081636;28;20201;-56
2024/01/01 10:26:06;;;;;;;3.77;1.30;;;;;;;8.87;92.11;96389.94;5082459;28;20287;-55
2024/01/01 10:28:33;;;;;;;2.30;0.97;;;;;;;8.77;92.12;96383.84;5080819;28;20619;-55
2024/01/01 10:31:01;;;;;;;1.07;0.93;;;;;;;8.84;92.71;96383.16;5081486;28;20206;-54
2024/01/01 10:33:31;;;;;;;2.13;1.17;;;;;;;9.00;90.02;96393.97;5080949;28;20210;-55
2024/01/01 10:36:00;;;;;;;5.30;1.73;;;;;;;9.10;90.99;96380.81;5082869;28;20198;-56
2024/01/01 10:38:30;;;;;;;1.30;1.00;;;;;;;9.34;88.21;96382.97;5082261;28;20213;-55
2024/01/01 10:40:57;;;;;;;1.93;0.90;;;;;;;9.76;88.50;96386.91;5081996;28;20234;-56
2024/01/01 10:43:28;;;;;;;1.30;0.90;;;;;;;10.15;84.65;96387.59;5082462;28;20212;-56
2024/01/01 10:46:01;;;;;;;0.73;0.60;;;;;;;10.65;83.10;96393.31;5084761;28;20216;-56
2024/01/01 10:48:28;;;;;;;1.50;0.90;;;;;;;11.06;79.78;96380.44;5085106;28;20245;-57
2024/01/01 10:51:05;;;;;;;2.10;0.70;;;;;;;11.42;76.93;96376.75;5085827;28;20210;-55
2024/01/01 10:53:46;;;;;;;1.60;0.80;;;;;;;11.76;75.07;96374.22;5084833;28;20201;-59
2024/01/01 10:56:21;;;;;;;1.00;0.83;;;;;;;11.96;71.01;96371.19;5085765;28;20293;-56
2024/01/01 10:58:56;;;;;;;2.07;0.87;;;;;;;11.88;70.97;96365.00;5084910;28;20213;-56
2024/01/01 11:01:24;;;;;;;0.60;0.50;;;;;;;11.92;70.25;96363.69;5085244;28;21125;-56
2024/01/01 11:03:51;;;;;;;1.67;0.60;;;;;;;11.63;70.78;96364.00;5085982;28;20208;-55
2024/01/01 11:06:27;;;;;;;1.20;0.97;;;;;;;11.18;73.14;96363.34;5085236;28;20313;-55
2024/01/01 11:08:57;;;;;;;2.30;0.90;;;;;;;10.97;71.70;96369.81;5085916;28;20296;-55
2024/01/01 11:11:27;;;;;;;1.00;0.90;;;;;;;10.69;74.92;96368.22;5084418;28;20210;-56
2024/01/01 11:13:55;;;;;;;2.03;1.10;;;;;;;10.63;76.71;96376.72;5086162;28;20272;-57
2024/01/01 11:16:22;;;;;;;2.40;0.80;;;;;;;10.31;74.40;96371.94;5084601;28;20205;-56
2024/01/01 11:18:49;;;;;;;3.63;1.00;;;;;;;10.23;76.33;96376.31;5085296;28;20198;-56
2024/01/01 11:21:30;;;;;;;2.20;0.90;;;;;;;10.23;76.35;96371.00;5085276;28;20281;-56
2024/01/01 11:24:01;;;;;;;1.80;0.87;;;;;;;10.16;77.49;96364.66;5085288;28;20226;-55
2024/01/01 11:26:30;;;;;;;1.37;1.00;;;;;;;10.14;76.23;96366.56;5084381;28;20210;-57
2024/01/01 11:28:58;;;;;;;2.17;0.80;;;;;;;9.96;76.51;96362.06;5085272;28;20259;-57
2024/01/01 11:31:25;;;;;;;1.57;0.80;;;;;;;9.80;79.45;96363.69;5084069;28;20210;-56
2024/01/01 11:34:08;;;;;;;2.20;0.87;;;;;;;9.68;82.16;96365.66;5084189;28;20522;-55